Riviera, Texas
Current Conditions -  °F | °C
As of 12:56 PM on Tuesday 21 Oct 2014 (Local Time) from KNQI Reporting Station
Broken Clouds Broken Clouds  
Wind Chill: 82°   Ceiling: 3900
Heat Index: 86°   Visibility: 10mi
Dew Point: 71°   Wind: 15mph
Humidity: 69%   Direction: 70°ENE
Pressure: 29.98"   Gusts: 23mph
Location:  27.3°N, 97.82°W
Report Text: KNQI 211756Z 07013G20KT 10SM SCT029 BKN039 BKN080 BKN250 28/22 A2998 RMK AO2 SLP149 CB DSNT S AND SW T02780217 10289 20211 58009
Loading
Personal Weather Stations






























Interactive Weather Map
Tropical Storm Tracking
New forecast layout! Learn more

10-Day Weather Forecast

Advertisements
Track Severe Weather on mobile